Hovedside
METAR-TAF:

METAR-TAF

Lufthavner :

Nouakchott internasjonale lufthavn

Nouakchott, Mauritania

breddegrad: 18-18-36N, lengdegrad: 015-58-11W, høyde over havet: 3 m

Gjeldene værobservasjon

Denne rapporten ble laget for 16 minutter siden, klokken 12:00 UTC
Vind 11 kt fra Øst
Temperatur 27°C
Luftfuktighet 15%
Trykk 1017 hPa
Sikt: 8000 m

METAR: GQNO 181200Z 09011KT 8000 NSC 27/M02 Q1017 NOSIG

Tid: 12:16 (12:16 UTC)

Varsel

Denne rapporten ble laget for 1 time og 16 minutter siden, klokken 11:00 UTC
Varsel gyldig fra 18. klokken 12 UTC til 19. klokken 18 UTC
Vind 10 kt fra Øst
Sikt: 8000 m
Blir
fra 18. klokken 14 UTC til 18. klokken 17 UTC
Vind 8 kt fra Nord-nordøst
Blir
fra 19. klokken 09 UTC til 19. klokken 12 UTC
Vind 10 kt fra Øst

TAF: GQNO 181100Z 1812/1918 08010KT 8000 NSC BECMG 1814/1817 02008KT BECMG 1909/1912 09010KT

Værobservasjoner og værvarsel for over 4000 flyplasser (METAR- og TAF-rapporter).

Tilgjengelige stasjoner er representert av de røde og gule prikkene på kartet.

Hold musepekeren over prikken for å se navnet på stasjonen.

Klikk så for å se værobservasjoner og -varsler.

For å forandre kartet kan du klikke på den grønne knappen med svart kryss for å zoome inn, på den grønne knappen med strek for å zoome ut, eller på de grønne pilene for å se tilstøtende kart.


METAR-TAF: